Time;durP1;ratioP1;P1;durP2;ratioP2;P2;SDS_P1;SDS_P2;PMS_P1;PMS_P2;Temp;Humidity;BMP_temperature;BMP_pressure;BME280_temperature;BME280_humidity;BME280_pressure;Samples;Min_cycle;Max_cycle;Signal;HPM_P1;HPM_P2
2023/06/05 00:01:37;;;;;;;;;22.75;22.00;;;;;18.81;71.76;100221.75;5030773;28;45454;-80
2023/06/05 00:04:03;;;;;;;;;26.00;23.00;;;;;18.82;71.42;100220.00;5027664;28;46151;-80
2023/06/05 00:06:30;;;;;;;;;24.50;21.00;;;;;18.84;71.38;100221.75;5056177;28;45509;-80
2023/06/05 00:08:56;;;;;;;;;28.75;24.25;;;;;18.84;71.48;100212.91;5037798;28;45390;-81
2023/06/05 00:11:22;;;;;;;;;25.50;24.00;;;;;18.69;71.69;100217.44;5051647;28;45500;-80
2023/06/05 00:13:49;;;;;;;;;20.25;18.75;;;;;18.65;71.97;100217.47;5047889;28;45562;-80
2023/06/05 00:16:15;;;;;;;;;24.25;23.75;;;;;18.58;71.51;100203.44;5039935;28;45381;-81
2023/06/05 00:18:42;;;;;;;;;17.50;15.75;;;;;18.17;71.95;100153.50;5059729;28;45433;-81
2023/06/05 00:21:08;;;;;;;;;27.50;22.00;;;;;18.55;71.77;100224.59;5052740;28;45110;-80
2023/06/05 00:23:33;;;;;;;;;24.00;21.75;;;;;18.54;71.32;100217.53;5030256;28;47995;-81
2023/06/05 00:25:59;;;;;;;;;22.75;21.25;;;;;18.42;71.48;100194.75;5051848;28;45436;-81
2023/06/05 00:28:25;;;;;;;;;25.50;23.75;;;;;18.40;71.79;100195.63;5042063;28;45572;-82
2023/06/05 00:30:51;;;;;;;;;24.50;23.50;;;;;18.21;72.00;100160.53;5050658;28;45644;-81
2023/06/05 00:33:16;;;;;;;;;22.50;18.25;;;;;18.35;72.16;100203.59;5049121;28;45408;-80
2023/06/05 00:35:42;;;;;;;;;21.00;20.75;;;;;18.26;72.03;100198.38;5044434;28;45524;-81
2023/06/05 00:38:08;;;;;;;;;22.75;21.25;;;;;18.35;71.89;100200.09;5046870;28;45417;-81
2023/06/05 00:40:33;;;;;;;;;22.50;20.25;;;;;18.40;72.06;100206.19;5038811;28;45260;-81
2023/06/05 00:42:59;;;;;;;;;24.00;21.00;;;;;18.40;71.69;100204.47;5053983;28;45484;-81
2023/06/05 00:45:25;;;;;;;;;20.25;20.00;;;;;18.18;71.41;100173.75;5045815;28;45410;-80
2023/06/05 00:47:51;;;;;;;;;24.25;20.50;;;;;18.12;72.13;100185.25;5046358;28;45282;-81
2023/06/05 00:50:17;;;;;;;;;23.00;21.00;;;;;18.28;72.04;100220.38;5048220;28;45528;-81
2023/06/05 00:52:44;;;;;;;;;20.25;19.25;;;;;18.27;71.91;100214.22;5042201;28;45524;-81
2023/06/05 00:55:11;;;;;;;;;24.50;22.25;;;;;18.31;71.93;100216.88;5045716;28;45385;-81
2023/06/05 00:57:38;;;;;;;;;27.33;20.33;;;;;18.17;72.14;100201.97;5044066;28;45719;-80
2023/06/05 01:00:07;;;;;;;;;23.75;20.75;;;;;18.05;72.13;100199.41;5031515;28;45617;-82
2023/06/05 01:02:34;;;;;;;;;25.75;24.50;;;;;18.10;72.76;100221.38;5023973;28;46528;-82
2023/06/05 01:05:00;;;;;;;;;23.75;22.00;;;;;18.00;73.46;100220.56;5045299;28;45445;-81
2023/06/05 01:07:27;;;;;;;;;21.75;19.75;;;;;17.92;73.21;100200.34;5046317;28;45483;-80
2023/06/05 01:09:54;;;;;;;;;24.25;20.75;;;;;18.03;73.02;100212.63;5026622;28;45573;-81
2023/06/05 01:12:39;;;;;;;;;25.75;22.50;;;;;17.97;73.59;100220.59;5023766;28;47010;-80
2023/06/05 01:15:07;;;;;;;;;23.75;21.25;;;;;17.76;73.35;100207.44;5045230;28;45630;-80
2023/06/05 01:17:34;;;;;;;;;24.25;22.75;;;;;17.94;72.54;100225.88;5021074;28;45303;-80
2023/06/05 01:20:06;;;;;;;;;24.75;22.75;;;;;17.51;72.29;100152.09;5046370;28;45577;-80
2023/06/05 01:22:32;;;;;;;;;20.50;18.50;;;;;17.87;72.25;100197.75;5045713;28;46168;-80
2023/06/05 01:24:59;;;;;;;;;21.50;19.25;;;;;17.86;72.68;100198.63;5026675;28;45334;-80
2023/06/05 01:27:27;;;;;;;;;21.50;20.50;;;;;18.01;72.23;100227.63;5049080;28;45465;-80
2023/06/05 01:30:03;;;;;;;;;26.25;22.50;;;;;18.00;71.95;100231.13;5044217;28;45384;-81
2023/06/05 01:32:40;;;;;;;;;23.00;21.25;;;;;17.86;72.75;100217.97;5043044;28;46060;-80
2023/06/05 01:35:09;;;;;;;;;18.50;17.75;;;;;17.88;72.51;100239.13;5049639;28;45381;-80
2023/06/05 01:37:41;;;;;;;;;18.75;18.00;;;;;17.92;72.12;100243.50;5045745;28;45421;-81
2023/06/05 01:40:14;;;;;;;;;22.75;19.25;;;;;17.78;72.03;100214.47;5049023;28;45929;-80
2023/06/05 01:42:42;;;;;;;;;22.50;20.75;;;;;17.93;72.38;100239.13;5029601;28;47859;-79
2023/06/05 01:45:09;;;;;;;;;26.25;22.75;;;;;17.82;73.03;100226.78;5046124;28;45995;-81
2023/06/05 01:47:39;;;;;;;;;22.50;20.50;;;;;17.81;72.63;100250.59;5025321;28;45413;-80
2023/06/05 01:50:06;;;;;;;;;23.25;22.00;;;;;17.68;72.61;100234.75;5047847;28;45581;-80
2023/06/05 01:52:34;;;;;;;;;21.00;20.00;;;;;17.76;72.41;100252.38;5047903;28;45491;-80
2023/06/05 01:55:01;;;;;;;;;22.75;21.00;;;;;17.71;72.70;100225.97;5042117;28;45483;-80
2023/06/05 01:57:28;;;;;;;;;22.00;22.00;;;;;17.70;72.69;100240.91;5048904;28;45564;-80
2023/06/05 01:59:54;;;;;;;;;21.00;20.50;;;;;17.72;73.67;100255.91;5047169;28;45440;-81
2023/06/05 02:02:21;;;;;;;;;26.25;22.50;;;;;17.53;73.88;100237.50;5052586;28;46244;-81
2023/06/05 02:04:49;;;;;;;;;24.50;22.00;;;;;17.54;73.57;100241.88;5044504;28;45171;-80
2023/06/05 02:07:16;;;;;;;;;24.50;23.25;;;;;17.42;73.69;100232.22;5049951;28;45251;-81
2023/06/05 02:09:42;;;;;;;;;24.00;23.50;;;;;17.58;73.54;100259.47;5043384;28;45328;-80
2023/06/05 02:12:08;;;;;;;;;30.00;28.25;;;;;17.57;73.14;100248.94;5039402;28;46405;-81
2023/06/05 02:14:37;;;;;;;;;25.00;23.50;;;;;17.43;72.62;100227.84;5036871;28;45558;-80
2023/06/05 02:17:06;;;;;;;;;22.75;21.00;;;;;17.55;72.74;100250.66;5036876;28;45596;-81
2023/06/05 02:19:35;;;;;;;;;21.75;20.75;;;;;17.42;72.83;100234.00;5032795;28;45592;-80
2023/06/05 02:22:00;;;;;;;;;22.25;19.25;;;;;17.67;72.28;100267.38;5050926;28;45457;-80
2023/06/05 02:24:26;;;;;;;;;21.75;20.75;;;;;17.63;71.67;100248.91;5050663;28;45600;-80
2023/06/05 02:26:52;;;;;;;;;24.75;23.50;;;;;17.78;71.72;100258.53;5052041;28;45350;-80
2023/06/05 02:29:17;;;;;;;;;21.75;20.75;;;;;17.63;71.89;100230.41;5049855;28;45290;-81
2023/06/05 02:31:43;;;;;;;;;22.00;20.50;;;;;17.70;71.59;100235.63;5039150;28;45606;-81
2023/06/05 02:34:09;;;;;;;;;23.50;20.75;;;;;17.88;71.41;100254.97;5032075;28;46073;-81
2023/06/05 02:36:35;;;;;;;;;21.50;19.75;;;;;17.96;70.90;100255.81;5050698;28;45267;-80
2023/06/05 02:39:02;;;;;;;;;26.50;22.25;;;;;17.79;71.17;100224.16;5049136;28;45894;-81
2023/06/05 02:41:27;;;;;;;;;25.50;24.00;;;;;17.87;71.60;100234.75;5049210;28;45542;-80
2023/06/05 02:43:56;;;;;;;;;24.00;21.00;;;;;17.70;72.20;100229.47;5041814;28;45450;-82
2023/06/05 02:46:24;;;;;;;;;22.75;21.75;;;;;17.67;73.40;100250.66;5032172;28;45520;-80
2023/06/05 02:48:53;;;;;;;;;27.00;23.50;;;;;17.36;73.77;100234.88;5038028;28;45681;-81
2023/06/05 02:51:18;;;;;;;;;22.00;20.00;;;;;17.39;73.71;100239.28;5048926;28;45587;-80
2023/06/05 02:53:44;;;;;;;;;22.75;20.50;;;;;17.27;74.01;100235.81;5034112;28;45481;-80
2023/06/05 02:56:10;;;;;;;;;21.50;20.50;;;;;17.25;73.77;100212.94;5031696;28;45414;-80
2023/06/05 02:58:35;;;;;;;;;23.50;21.75;;;;;17.50;73.76;100245.41;5059084;28;45450;-81
2023/06/05 03:01:08;;;;;;;;;21.50;19.00;;;;;17.49;73.41;100251.59;5054121;28;46173;-80
2023/06/05 03:03:34;;;;;;;;;22.50;20.00;;;;;17.36;72.93;100226.09;5051038;28;45350;-81
2023/06/05 03:06:07;;;;;;;;;25.00;23.00;;;;;17.49;73.17;100259.50;5040055;28;45451;-80
2023/06/05 03:08:37;;;;;;;;;23.75;21.25;;;;;17.21;73.19;100212.06;5057555;28;45352;-82
2023/06/05 03:11:03;;;;;;;;;23.75;21.75;;;;;17.42;73.46;100252.47;5058721;28;45351;-79
2023/06/05 03:13:30;;;;;;;;;23.00;21.50;;;;;17.44;73.20;100259.50;5039576;28;45449;-80
2023/06/05 03:16:01;;;;;;;;;23.50;20.25;;;;;17.44;73.39;100261.28;5040859;28;45525;-79
2023/06/05 03:18:30;;;;;;;;;22.00;20.00;;;;;17.42;73.19;100258.63;5052834;28;45315;-80
2023/06/05 03:20:56;;;;;;;;;21.50;21.00;;;;;17.38;73.19;100253.38;5038555;28;46134;-79
2023/06/05 03:23:27;;;;;;;;;28.00;25.00;;;;;17.13;74.36;100250.78;5037370;28;45746;-79
2023/06/05 03:25:53;;;;;;;;;23.25;22.25;;;;;16.99;74.52;100252.53;5037828;28;45483;-80
2023/06/05 03:28:20;;;;;;;;;23.75;22.50;;;;;16.89;74.17;100252.56;5020916;28;45296;-81
2023/06/05 03:30:46;;;;;;;;;24.00;22.25;;;;;16.87;74.89;100258.72;5041013;28;45579;-81
2023/06/05 03:33:13;;;;;;;;;24.25;23.50;;;;;16.91;74.96;100260.50;5058269;28;45321;-80
2023/06/05 03:35:40;;;;;;;;;30.00;26.00;;;;;16.63;75.95;100205.06;5058169;28;45291;-80
2023/06/05 03:38:06;;;;;;;;;27.75;24.00;;;;;16.66;75.96;100209.47;5058880;28;45267;-80
2023/06/05 03:40:32;;;;;;;;;19.50;17.50;;;;;16.65;75.85;100199.78;5057221;28;48208;-80
2023/06/05 03:42:57;;;;;;;;;24.50;23.50;;;;;16.46;76.11;100183.97;5058554;28;45297;-80
2023/06/05 03:45:26;;;;;;;;;23.50;23.25;;;;;16.76;76.68;100240.22;5041324;28;45520;-80
2023/06/05 03:47:52;;;;;;;;;22.00;20.50;;;;;16.80;76.08;100214.72;5038189;28;45486;-80
2023/06/05 03:50:17;;;;;;;;;26.00;23.75;;;;;16.92;75.09;100209.47;5020278;28;46750;-80
2023/06/05 03:52:43;;;;;;;;;26.75;23.75;;;;;17.18;74.38;100227.88;5038364;28;45481;-80
2023/06/05 03:55:09;;;;;;;;;22.00;21.25;;;;;17.19;73.81;100220.84;5038381;28;45414;-79
2023/06/05 03:57:37;;;;;;;;;24.50;22.75;;;;;17.26;73.93;100220.81;5048263;28;45415;-80
2023/06/05 04:00:10;;;;;;;;;22.25;20.50;;;;;17.27;73.57;100217.31;5040113;28;46441;-80
2023/06/05 04:02:37;;;;;;;;;24.00;22.50;;;;;17.34;73.89;100225.22;5040062;28;45914;-79
2023/06/05 04:05:03;;;;;;;;;26.00;23.00;;;;;17.29;73.83;100212.91;5040497;28;45424;-79
2023/06/05 04:07:29;;;;;;;;;17.75;17.75;;;;;17.40;73.80;100230.47;5039352;28;45503;-79
2023/06/05 04:09:55;;;;;;;;;21.75;19.75;;;;;17.33;73.83;100212.88;5057939;28;46367;-79
2023/06/05 04:12:21;;;;;;;;;23.25;20.75;;;;;17.45;73.66;100215.50;5039040;28;45554;-80
2023/06/05 04:14:47;;;;;;;;;22.75;22.50;;;;;17.50;73.56;100219.00;5056508;28;45533;-79
2023/06/05 04:17:15;;;;;;;;;22.75;21.50;;;;;17.43;73.55;100206.72;5040014;28;45682;-79
2023/06/05 04:19:41;;;;;;;;;21.25;17.25;;;;;17.15;73.47;100155.75;5057222;28;46285;-79
2023/06/05 04:22:07;;;;;;;;;25.00;22.00;;;;;17.40;73.32;100185.59;5057394;28;45472;-79
2023/06/05 04:24:32;;;;;;;;;21.25;21.25;;;;;17.69;72.89;100223.34;5054818;28;45435;-79
2023/06/05 04:27:00;;;;;;;;;19.50;18.75;;;;;17.57;72.85;100196.97;5043517;28;45539;-80
2023/06/05 04:29:26;;;;;;;;;25.25;23.50;;;;;17.59;72.66;100216.34;5045458;28;47716;-80
2023/06/05 04:31:52;;;;;;;;;22.50;22.00;;;;;17.46;72.83;100204.06;5032574;28;45346;-79
2023/06/05 04:34:20;;;;;;;;;24.25;22.25;;;;;17.20;73.69;100183.88;5038623;28;45512;-80
2023/06/05 04:36:49;;;;;;;;;23.50;22.25;;;;;17.37;73.82;100231.38;5036997;28;45292;-80
2023/06/05 04:39:15;;;;;;;;;28.00;26.00;;;;;17.26;74.28;100220.81;5035514;28;45786;-81
2023/06/05 04:41:48;;;;;;;;;23.00;20.50;;;;;17.24;74.32;100222.59;5035355;28;45379;-80
2023/06/05 04:44:16;;;;;;;;;24.25;22.00;;;;;17.27;74.46;100222.59;5035810;28;45430;-79
2023/06/05 04:46:43;;;;;;;;;27.75;25.25;;;;;17.34;74.94;100227.88;5050117;28;45485;-79
2023/06/05 04:49:12;;;;;;;;;28.25;27.25;;;;;17.30;74.98;100227.84;5055996;28;45353;-79
2023/06/05 04:51:39;;;;;;;;;26.50;24.75;;;;;17.33;75.10;100227.00;5038569;28;45453;-80
2023/06/05 04:54:05;;;;;;;;;26.75;24.50;;;;;17.39;75.17;100226.97;5056456;28;45475;-80
2023/06/05 04:56:34;;;;;;;;;25.00;24.00;;;;;17.33;75.13;100221.72;5038813;28;45620;-78
2023/06/05 04:59:02;;;;;;;;;26.00;23.75;;;;;17.39;74.90;100223.44;5038209;28;47417;-79
2023/06/05 05:01:28;;;;;;;;;23.00;21.75;;;;;17.30;75.01;100205.88;5035146;28;45542;-78
2023/06/05 05:03:54;;;;;;;;;21.25;19.75;;;;;17.45;74.86;100216.38;5020367;28;46190;-80
2023/06/05 05:06:20;;;;;;;;;22.25;22.00;;;;;17.70;74.05;100235.63;5050435;28;45441;-80
2023/06/05 05:08:50;;;;;;;;;25.75;24.00;;;;;17.86;73.59;100233.84;5046025;28;46453;-80
2023/06/05 05:11:17;;;;;;;;;23.75;22.25;;;;;17.91;73.31;100230.31;5038109;28;45593;-78
2023/06/05 05:13:43;;;;;;;;;31.50;28.50;;;;;17.98;73.54;100238.19;5037386;28;45470;-81
2023/06/05 05:16:10;;;;;;;;;26.75;25.00;;;;;17.97;72.87;100219.72;5049391;28;45475;-79
2023/06/05 05:18:40;;;;;;;;;24.25;23.25;;;;;18.05;72.64;100232.00;5037305;28;46453;-80
2023/06/05 05:21:06;;;;;;;;;24.25;21.50;;;;;18.14;72.62;100225.75;5056110;28;45305;-79
2023/06/05 05:23:33;;;;;;;;;21.50;20.50;;;;;18.34;72.23;100238.84;5038589;28;45417;-82
2023/06/05 05:25:59;;;;;;;;;25.25;23.50;;;;;18.45;71.99;100244.09;5055476;28;45456;-80
2023/06/05 05:28:24;;;;;;;;;22.25;19.50;;;;;18.56;71.63;100241.34;5056488;28;46079;-83
2023/06/05 05:30:52;;;;;;;;;22.50;21.50;;;;;18.57;71.27;100227.25;5055289;28;45347;-80
2023/06/05 05:33:18;;;;;;;;;26.50;24.50;;;;;18.62;71.28;100223.69;5055839;28;45787;-80
2023/06/05 05:35:44;;;;;;;;;23.25;20.75;;;;;18.60;71.30;100211.31;5038445;28;45458;-81
2023/06/05 05:38:10;;;;;;;;;22.75;21.50;;;;;18.82;71.04;100236.78;5041217;28;47869;-81
2023/06/05 05:40:36;;;;;;;;;26.00;23.25;;;;;18.49;70.87;100172.63;5047435;28;45751;-81
2023/06/05 05:43:01;;;;;;;;;21.50;20.00;;;;;18.56;70.59;100176.13;5040062;28;45606;-81
2023/06/05 05:45:27;;;;;;;;;25.50;22.75;;;;;18.83;70.78;100225.28;5032827;28;45544;-81
2023/06/05 05:47:52;;;;;;;;;23.75;22.25;;;;;18.63;71.08;100172.50;5037672;28;46305;-81
2023/06/05 05:50:18;;;;;;;;;23.50;21.75;;;;;18.93;70.74;100199.59;5039858;28;45335;-82
2023/06/05 05:52:44;;;;;;;;;24.50;21.75;;;;;19.00;70.97;100218.94;5044474;28;45402;-82
2023/06/05 05:55:10;;;;;;;;;26.50;23.75;;;;;18.81;70.58;100173.25;5040213;28;45322;-82
2023/06/05 05:57:36;;;;;;;;;23.50;20.25;;;;;19.01;70.61;100203.03;5038470;28;47566;-81
2023/06/05 06:00:09;;;;;;;;;24.50;22.75;;;;;19.01;70.24;100178.34;5038651;28;45434;-82
2023/06/05 06:02:35;;;;;;;;;21.33;20.00;;;;;19.39;69.89;100233.53;5041080;28;45348;-79
2023/06/05 06:05:02;;;;;;;;;18.33;17.33;;;;;19.35;70.36;100241.53;5040895;28;45530;-81
2023/06/05 06:07:27;;;;;;;;;21.75;21.00;;;;;19.25;70.73;100231.03;5057163;28;45537;-82
2023/06/05 06:09:53;;;;;;;;;22.67;20.67;;;;;19.42;70.29;100232.66;5041654;28;45455;-81
2023/06/05 06:12:19;;;;;;;;;23.25;20.75;;;;;19.53;69.75;100227.22;5059772;28;45264;-83
2023/06/05 06:14:45;;;;;;;;;25.75;23.75;;;;;19.40;70.46;100227.34;5057120;28;45431;-81
2023/06/05 06:17:11;;;;;;;;;27.50;25.50;;;;;19.13;70.80;100187.94;5039215;28;45504;-81
2023/06/05 06:19:37;;;;;;;;;26.50;25.25;;;;;19.37;70.28;100200.88;5039466;28;45548;-82
2023/06/05 06:22:03;;;;;;;;;25.75;23.25;;;;;19.58;70.36;100202.41;5025932;28;45569;-82
2023/06/05 06:24:29;;;;;;;;;23.25;20.25;;;;;19.86;69.58;100208.25;5058193;28;45417;-79
2023/06/05 06:26:54;;;;;;;;;23.25;22.25;;;;;20.01;68.64;100209.81;5045870;28;45669;-79
2023/06/05 06:29:22;;;;;;;;;28.25;26.50;;;;;19.78;68.63;100153.63;5038881;28;45520;-79
2023/06/05 06:31:49;;;;;;;;;28.25;25.00;;;;;19.92;68.29;100174.63;5039068;28;45566;-79
2023/06/05 06:34:14;;;;;;;;;22.33;22.00;;;;;20.49;67.96;100221.50;5021400;28;45355;-79
2023/06/05 06:36:40;;;;;;;;;24.25;21.50;;;;;20.73;67.27;100226.44;5038611;28;45426;-79
2023/06/05 06:39:10;;;;;;;;;24.67;24.00;;;;;20.85;66.41;100205.00;5039308;28;45316;-80
2023/06/05 06:41:36;;;;;;;;;24.00;23.50;;;;;21.18;65.54;100213.22;5053696;28;45479;-79
2023/06/05 06:44:02;;;;;;;;;19.25;18.50;;;;;21.08;65.33;100190.41;5043474;28;45931;-79
2023/06/05 06:46:27;;;;;;;;;24.67;20.67;;;;;21.24;65.42;100212.25;5038281;28;46127;-79
2023/06/05 06:48:53;;;;;;;;;22.33;19.67;;;;;21.36;65.66;100209.34;5055031;28;45361;-79
2023/06/05 06:51:18;;;;;;;;;23.00;21.67;;;;;21.51;65.03;100189.59;5058822;28;45747;-79
2023/06/05 06:53:44;;;;;;;;;25.00;23.00;;;;;21.65;64.80;100206.13;5054738;28;45460;-80
2023/06/05 06:56:10;;;;;;;;;18.33;16.67;;;;;21.74;64.18;100210.34;5038699;28;45423;-79
2023/06/05 06:58:36;;;;;;;;;20.67;19.67;;;;;21.85;64.60;100220.78;5057832;28;45362;-79
2023/06/05 07:01:03;;;;;;;;;21.33;21.33;;;;;21.94;63.95;100196.63;5045691;28;45223;-80
2023/06/05 07:03:29;;;;;;;;;28.25;27.00;;;;;22.34;62.41;100213.50;5050690;28;45517;-80
2023/06/05 07:05:55;;;;;;;;;21.67;21.00;;;;;22.78;61.98;100212.41;5025805;28;47197;-79
2023/06/05 07:08:20;;;;;;;;;22.00;20.25;;;;;23.49;60.73;100207.84;5053287;28;45393;-79
2023/06/05 07:10:46;;;;;;;;;18.33;17.33;;;;;24.21;58.62;100196.81;5048897;28;45493;-80
2023/06/05 07:13:12;;;;;;;;;18.33;16.33;;;;;25.00;55.88;100203.13;5051273;28;45268;-80
2023/06/05 07:15:37;;;;;;;;;20.00;20.00;;;;;25.70;55.12;100190.78;5048770;28;46113;-80
2023/06/05 07:18:03;;;;;;;;;25.67;23.33;;;;;27.65;48.90;100203.22;5049128;28;45496;-80
2023/06/05 07:20:28;;;;;;;;;22.00;20.33;;;;;29.62;48.19;100198.75;5051341;28;46572;-79
2023/06/05 07:22:54;;;;;;;;;23.67;20.33;;;;;32.20;41.44;100201.38;5055257;28;45501;-80
2023/06/05 07:25:22;;;;;;;;;18.67;17.33;;;;;34.11;39.51;100218.81;5048173;28;46299;-77
2023/06/05 07:27:48;;;;;;;;;22.67;20.67;;;;;35.38;34.52;100202.84;5032362;28;45603;-80
2023/06/05 07:30:14;;;;;;;;;22.33;20.00;;;;;36.27;33.19;100213.81;5048538;28;45382;-80
2023/06/05 07:32:42;;;;;;;;;22.00;21.67;;;;;36.53;31.55;100217.09;5058188;28;45421;-81
2023/06/05 07:35:08;;;;;;;;;22.00;20.67;;;;;37.56;30.68;100210.09;5029077;28;45695;-81
2023/06/05 07:37:35;;;;;;;;;21.00;20.33;;;;;38.30;29.68;100206.19;5051941;28;45219;-79
2023/06/05 07:40:00;;;;;;;;;20.33;19.33;;;;;38.97;29.89;100209.97;5038776;28;45671;-80
2023/06/05 07:42:26;;;;;;;;;18.33;18.33;;;;;39.55;29.83;100212.56;5020002;28;45348;-80
2023/06/05 07:44:52;;;;;;;;;19.67;19.33;;;;;40.08;27.37;100189.19;5036001;28;46851;-78
2023/06/05 07:47:17;;;;;;;;;18.00;18.00;;;;;40.71;27.05;100217.56;5037426;28;45459;-78
2023/06/05 07:49:43;;;;;;;;;18.67;17.00;;;;;40.77;27.13;100197.78;5035551;28;45352;-79
2023/06/05 07:52:08;;;;;;;;;13.00;12.33;;;;;41.52;25.63;100209.06;5038415;28;45521;-78
2023/06/05 07:54:34;;;;;;;;;20.67;18.33;;;;;42.37;25.85;100210.97;5029161;28;46132;-79
2023/06/05 07:57:00;;;;;;;;;17.00;16.00;;;;;42.99;25.69;100198.69;5056573;28;45459;-75
2023/06/05 07:59:27;;;;;;;;;20.67;18.67;;;;;43.46;24.38;100207.03;5038312;28;45297;-77
2023/06/05 08:01:55;;;;;;;;;20.00;19.33;;;;;43.42;23.06;100208.44;5037746;28;45573;-76
2023/06/05 08:04:24;;;;;;;;;18.00;17.00;;;;;43.35;23.75;100206.56;5037423;28;45481;-78
2023/06/05 08:06:51;;;;;;;;;19.00;18.00;;;;;43.18;23.38;100211.22;5019074;28;45379;-77
2023/06/05 08:09:18;;;;;;;;;16.33;16.00;;;;;43.65;24.79;100199.41;5048648;28;45395;-78
2023/06/05 08:11:43;;;;;;;;;19.33;19.00;;;;;43.94;22.01;100193.28;5050369;28;45374;-78
2023/06/05 08:14:09;;;;;;;;;17.33;16.33;;;;;44.01;23.20;100212.69;5050998;28;45352;-77
2023/06/05 08:16:35;;;;;;;;;18.00;17.33;;;;;43.89;22.37;100191.09;5042949;28;45390;-77
2023/06/05 08:19:01;;;;;;;;;13.33;11.67;;;;;44.17;21.78;100207.13;5054133;28;45541;-78
2023/06/05 08:21:27;;;;;;;;;18.00;17.67;;;;;44.63;21.69;100209.94;5050146;28;45576;-79
2023/06/05 08:23:53;;;;;;;;;18.33;17.67;;;;;44.64;22.58;100194.25;5046486;28;46060;-79
2023/06/05 08:26:19;;;;;;;;;17.67;17.67;;;;;45.26;22.56;100194.03;5049542;28;45523;-79
2023/06/05 08:28:45;;;;;;;;;16.33;15.00;;;;;45.71;22.43;100198.72;5035168;28;45424;-80
2023/06/05 08:31:11;;;;;;;;;19.33;18.00;;;;;45.49;20.18;100206.91;5037222;28;45631;-78
2023/06/05 08:33:37;;;;;;;;;16.00;16.00;;;;;44.79;20.79;100208.94;5026988;28;45546;-80
2023/06/05 08:36:05;;;;;;;;;13.67;12.67;;;;;44.73;21.20;100193.16;5043732;28;45536;-79
2023/06/05 08:38:32;;;;;;;;;19.33;17.33;;;;;44.26;21.58;100191.41;5054942;28;45437;-79
2023/06/05 08:41:05;;;;;;;;;22.00;19.00;;;;;44.06;22.38;100193.75;5041265;28;45504;-79
2023/06/05 08:43:31;;;;;;;;;15.67;15.00;;;;;44.27;22.24;100188.47;5020318;28;45574;-79
2023/06/05 08:45:57;;;;;;;;;19.00;17.67;;;;;44.81;21.04;100189.44;5037257;28;45501;-79
2023/06/05 08:48:24;;;;;;;;;16.00;16.00;;;;;44.95;21.72;100191.41;5035577;28;45548;-79
2023/06/05 08:50:51;;;;;;;;;15.00;14.00;;;;;44.82;22.03;100192.00;5039652;28;45338;-80
2023/06/05 08:53:18;;;;;;;;;17.67;17.00;;;;;44.51;22.67;100196.75;5056953;28;45486;-80
2023/06/05 08:55:45;;;;;;;;;15.67;15.33;;;;;45.17;21.52;100189.63;5048153;28;45410;-80
2023/06/05 08:58:13;;;;;;;;;16.00;14.67;;;;;45.55;21.25;100180.44;5046044;28;45550;-80
2023/06/05 09:00:40;;;;;;;;;17.00;16.67;;;;;45.99;21.98;100196.09;5035853;28;45457;-80
2023/06/05 09:03:05;;;;;;;;;17.67;17.33;;;;;46.66;19.97;100191.31;5036746;28;46236;-80
2023/06/05 09:05:31;;;;;;;;;17.67;17.67;;;;;46.36;20.00;100191.41;5045670;28;45338;-80
2023/06/05 09:07:58;;;;;;;;;15.33;14.67;;;;;45.81;21.25;100179.97;5038568;28;45537;-80
2023/06/05 09:10:28;;;;;;;;;16.00;16.00;;;;;45.98;21.18;100186.09;5040301;28;45342;-80
2023/06/05 09:12:57;;;;;;;;;21.00;20.00;;;;;46.06;20.39;100187.91;5038289;28;45608;-80
2023/06/05 09:15:33;;;;;;;;;16.33;16.33;;;;;45.35;21.11;100180.19;5045605;28;45336;-80
2023/06/05 09:18:15;;;;;;;;;15.67;15.33;;;;;45.60;20.74;100166.91;5050911;28;45445;-79
2023/06/05 09:20:48;;;;;;;;;17.00;16.67;;;;;45.23;20.88;100177.84;5036220;28;45524;-79
2023/06/05 09:23:28;;;;;;;;;18.00;16.33;;;;;45.26;21.11;100176.59;5046284;28;45555;-80
2023/06/05 09:25:57;;;;;;;;;18.33;15.67;;;;;45.01;21.47;100173.28;5049533;28;45526;-80
2023/06/05 09:28:23;;;;;;;;;19.00;16.00;;;;;44.72;22.12;100163.00;5031428;28;45360;-80
2023/06/05 09:31:01;;;;;;;;;16.33;15.33;;;;;44.52;22.01;100173.69;5040941;28;45496;-80
2023/06/05 09:33:34;;;;;;;;;17.67;16.67;;;;;44.37;21.77;100148.81;5053117;28;46127;-80
2023/06/05 09:36:11;;;;;;;;;16.33;16.33;;;;;43.35;22.77;100157.06;5035864;28;45394;-80
2023/06/05 09:38:41;;;;;;;;;14.67;14.33;;;;;42.60;23.08;100158.16;5027080;28;45370;-80
2023/06/05 09:41:08;;;;;;;;;13.67;13.67;;;;;42.33;24.16;100163.78;5042642;28;45324;-82
2023/06/05 09:43:34;;;;;;;;;16.00;15.33;;;;;42.32;23.60;100170.31;5051088;28;46104;-78
2023/06/05 09:46:07;;;;;;;;;15.00;14.00;;;;;42.27;23.72;100169.09;5036054;28;45239;-77
2023/06/05 09:48:32;;;;;;;;;14.33;14.33;;;;;41.93;24.62;100159.91;5043990;28;46121;-79
2023/06/05 09:51:12;;;;;;;;;13.00;13.00;;;;;41.65;24.62;100169.44;5041673;28;45393;-78
2023/06/05 09:53:58;;;;;;;;;13.00;12.33;;;;;41.23;24.97;100165.59;5039160;28;46418;-78
2023/06/05 09:56:24;;;;;;;;;13.67;13.00;;;;;40.69;25.83;100160.19;5044112;28;45467;-78
2023/06/05 09:58:51;;;;;;;;;14.67;14.67;;;;;40.54;25.43;100162.63;5049989;28;45389;-77
2023/06/05 10:01:22;;;;;;;;;12.33;12.33;;;;;40.70;25.88;100161.91;5039286;28;47852;-77
2023/06/05 10:03:57;;;;;;;;;16.33;14.67;;;;;41.41;24.57;100153.69;5046086;28;45492;-75
2023/06/05 10:06:26;;;;;;;;;15.00;13.67;;;;;41.42;25.29;100152.66;5035926;28;45353;-79
2023/06/05 10:08:56;;;;;;;;;17.33;15.33;;;;;41.08;25.01;100154.31;5035635;28;45375;-78
2023/06/05 10:11:22;;;;;;;;;8.67;8.33;;;;;41.22;24.62;100157.53;5030396;28;45390;-77
2023/06/05 10:13:49;;;;;;;;;13.00;11.67;;;;;40.96;25.51;100155.63;5035381;28;46471;-77
2023/06/05 10:16:18;;;;;;;;;14.00;14.00;;;;;41.11;25.41;100136.72;5050682;28;45481;-77
2023/06/05 10:18:47;;;;;;;;;13.00;13.00;;;;;41.47;24.80;100151.16;5041349;28;45535;-77
2023/06/05 10:21:17;;;;;;;;;15.00;14.67;;;;;41.40;25.20;100149.22;5048710;28;45481;-78
2023/06/05 10:23:47;;;;;;;;;13.33;13.00;;;;;41.26;25.64;100107.69;5051233;28;46079;-79
2023/06/05 10:26:31;;;;;;;;;13.33;13.00;;;;;41.97;25.00;100143.13;5047686;28;45542;-78
2023/06/05 10:29:16;;;;;;;;;12.33;11.00;;;;;42.19;24.60;100167.19;5051686;28;45711;-78
2023/06/05 10:32:01;;;;;;;;;11.33;11.00;;;;;41.29;24.60;100156.72;5039920;28;45542;-78
2023/06/05 10:34:47;;;;;;;;;17.50;15.00;;;;;40.09;25.68;100152.63;5051191;28;46633;-79
2023/06/05 10:37:47;;;;;;;;;15.33;14.33;;;;;39.59;27.35;100150.28;5031465;28;45351;-77
2023/06/05 10:40:16;;;;;;;;;14.67;14.00;;;;;39.94;26.26;100141.31;5052143;28;45560;-77
2023/06/05 10:42:43;;;;;;;;;16.00;15.67;;;;;39.99;26.73;100148.22;5052530;28;45669;-76
2023/06/05 10:45:09;;;;;;;;;12.00;11.33;;;;;39.61;27.04;100148.25;5049950;28;46214;-77
2023/06/05 10:47:35;;;;;;;;;15.00;13.67;;;;;39.49;27.25;100144.00;5043671;28;45458;-77
2023/06/05 10:50:15;;;;;;;;;15.00;13.67;;;;;39.26;27.59;100141.63;5051555;28;45370;-78
2023/06/05 10:52:41;;;;;;;;;14.00;14.00;;;;;39.34;27.49;100125.34;5067398;28;45299;-78
2023/06/05 10:55:07;;;;;;;;;15.33;14.33;;;;;39.40;27.79;100118.41;5047660;28;45338;-78
2023/06/05 10:58:10;;;;;;;;;13.00;13.00;;;;;39.45;27.74;100118.00;5037888;28;45622;-78
2023/06/05 11:00:59;;;;;;;;;17.33;15.67;;;;;38.92;27.73;100133.09;5054542;28;45600;-77
2023/06/05 11:03:57;;;;;;;;;15.67;15.00;;;;;37.79;29.32;100140.78;5056169;28;45400;-77
2023/06/05 11:06:23;;;;;;;;;15.33;15.00;;;;;37.47;30.19;100118.28;5023023;28;46073;-77
2023/06/05 11:09:14;;;;;;;;;17.00;14.33;;;;;37.37;30.12;100126.41;5034048;28;45788;-77
2023/06/05 11:11:57;;;;;;;;;16.00;15.33;;;;;37.16;30.62;100119.13;5040112;28;45583;-78
2023/06/05 11:14:23;;;;;;;;;15.67;15.33;;;;;36.81;31.21;100124.97;5053944;28;45691;-77